Time;durP1;ratioP1;P1;durP2;ratioP2;P2;SDS_P1;SDS_P2;PMS_P1;PMS_P2;Temp;Humidity;BMP_temperature;BMP_pressure;BME280_temperature;BME280_humidity;BME280_pressure;Samples;Min_cycle;Max_cycle;Signal;HPM_P1;HPM_P2
2021/12/13 00:02:37;;;;;;;149.18;31.25;;;10.90;99.90;;;;;;5051184;28;20041;-60
2021/12/13 00:05:18;;;;;;;155.75;32.92;;;10.90;99.90;;;;;;5051021;28;20579;-60
2021/12/13 00:07:55;;;;;;;140.57;31.67;;;10.90;99.90;;;;;;5050993;28;20040;-59
2021/12/13 00:10:23;;;;;;;147.93;34.30;;;10.90;99.90;;;;;;5050567;28;20798;-59
2021/12/13 00:13:01;;;;;;;139.20;32.55;;;10.90;99.90;;;;;;5050465;28;20482;-59
2021/12/13 00:15:32;;;;;;;141.23;31.88;;;10.90;99.90;;;;;;5050873;28;20083;-59
2021/12/13 00:17:59;;;;;;;138.27;31.80;;;10.80;99.90;;;;;;5050688;28;20041;-60
2021/12/13 00:20:44;;;;;;;131.82;30.83;;;10.80;99.90;;;;;;5050408;28;20041;-60
2021/12/13 00:23:16;;;;;;;139.13;31.88;;;10.90;99.90;;;;;;5050728;28;20095;-60
2021/12/13 00:25:46;;;;;;;131.98;30.70;;;10.90;99.90;;;;;;5050686;28;20103;-59
2021/12/13 00:28:15;;;;;;;118.65;29.90;;;10.90;99.90;;;;;;5050470;28;20037;-58
2021/12/13 00:31:01;;;;;;;122.15;29.52;;;10.90;99.90;;;;;;5050285;28;20033;-59
2021/12/13 00:33:44;;;;;;;112.90;28.73;;;10.90;99.90;;;;;;5030622;28;20037;-57
2021/12/13 00:36:25;;;;;;;117.38;28.02;;;10.90;99.90;;;;;;5030301;28;20044;-59
2021/12/13 00:38:55;;;;;;;109.97;27.65;;;10.90;99.90;;;;;;5030423;28;20116;-59
2021/12/13 00:41:25;;;;;;;97.65;27.42;;;10.90;99.90;;;;;;5030480;28;20083;-60
2021/12/13 00:44:02;;;;;;;103.43;28.48;;;10.80;99.90;;;;;;5030544;28;20162;-60
2021/12/13 00:46:30;;;;;;;99.00;27.08;;;10.90;99.90;;;;;;5030475;28;20047;-60
2021/12/13 00:48:59;;;;;;;96.57;27.83;;;10.90;99.90;;;;;;5030255;28;20038;-61
2021/12/13 00:51:32;;;;;;;103.53;26.88;;;10.90;99.90;;;;;;5030102;28;20040;-59
2021/12/13 00:54:01;;;;;;;94.70;26.23;;;10.90;99.90;;;;;;5030048;28;20052;-60
2021/12/13 00:56:54;;;;;;;93.75;26.95;;;10.90;99.90;;;;;;5030332;28;20053;-59
2021/12/13 00:59:39;;;;;;;102.10;28.17;;;10.90;99.90;;;;;;5029985;28;20033;-59
2021/12/13 01:02:07;;;;;;;99.90;25.42;;;11.00;99.90;;;;;;5029829;28;20042;-59
2021/12/13 01:05:10;;;;;;;92.57;25.70;;;11.00;99.90;;;;;;5030048;28;20088;-59
2021/12/13 01:08:03;;;;;;;94.70;26.33;;;10.90;99.90;;;;;;5030103;28;20052;-59
2021/12/13 01:10:54;;;;;;;92.32;25.17;;;11.00;99.90;;;;;;5029626;28;20595;-59
2021/12/13 01:13:29;;;;;;;77.75;24.38;;;11.00;99.90;;;;;;5012254;28;20403;-60
2021/12/13 01:16:31;;;;;;;84.85;23.67;;;11.00;99.90;;;;;;5030104;28;20049;-59
2021/12/13 01:19:26;;;;;;;84.47;23.58;;;11.00;99.90;;;;;;5012134;28;20491;-60
2021/12/13 01:22:50;;;;;;;77.18;22.95;;;11.00;99.90;;;;;;5029445;28;20056;-60
2021/12/13 01:25:39;;;;;;;76.00;22.33;;;11.00;99.90;;;;;;5029752;28;20049;-59
2021/12/13 01:28:20;;;;;;;71.57;22.30;;;11.00;99.90;;;;;;5012104;28;20112;-59
2021/12/13 01:31:00;;;;;;;75.30;24.10;;;11.00;99.90;;;;;;5030802;28;20279;-59
2021/12/13 01:33:28;;;;;;;94.25;24.55;;;11.00;99.90;;;;;;5033585;28;20080;-60
2021/12/13 01:35:58;;;;;;;79.57;23.08;;;11.00;99.90;;;;;;5034081;28;20041;-59
2021/12/13 01:38:33;;;;;;;95.32;23.85;;;11.00;99.90;;;;;;5033691;28;20409;-58
2021/12/13 01:41:08;;;;;;;87.40;23.92;;;11.00;99.90;;;;;;5033776;28;20038;-59
2021/12/13 01:43:37;;;;;;;73.53;22.13;;;11.00;99.90;;;;;;5033530;28;20038;-58
2021/12/13 01:46:02;;;;;;;79.68;23.13;;;11.00;99.90;;;;;;5033489;28;20076;-58
2021/12/13 01:48:35;;;;;;;72.45;21.67;;;11.00;99.90;;;;;;5033569;28;20072;-59
2021/12/13 01:51:05;;;;;;;73.07;20.70;;;11.00;99.90;;;;;;5033449;28;20082;-58
2021/12/13 01:53:57;;;;;;;65.57;21.58;;;11.00;99.90;;;;;;5033365;28;20033;-59
2021/12/13 01:56:52;;;;;;;67.18;20.80;;;11.00;99.90;;;;;;5033416;28;20559;-59
2021/12/13 02:02:14;;;;;;;63.65;20.95;;;11.00;99.90;;;;;;5033162;28;20041;-60
2021/12/13 02:04:41;;;;;;;55.45;20.38;;;11.00;99.90;;;;;;5033247;28;20044;-60
2021/12/13 02:07:08;;;;;;;51.25;19.85;;;11.00;99.90;;;;;;5033184;28;20045;-60
2021/12/13 02:09:41;;;;;;;48.70;18.92;;;11.00;99.90;;;;;;5033392;28;20084;-61
2021/12/13 02:12:13;;;;;;;54.38;18.80;;;11.00;99.90;;;;;;5033026;28;20053;-59
2021/12/13 02:14:47;;;;;;;43.38;18.80;;;11.00;99.90;;;;;;5033100;28;20037;-59
2021/12/13 02:17:19;;;;;;;44.80;19.33;;;11.00;99.90;;;;;;5033011;28;20041;-60
2021/12/13 02:20:00;;;;;;;48.33;20.30;;;11.00;99.90;;;;;;5033247;28;20045;-61
2021/12/13 02:22:39;;;;;;;52.50;21.45;;;11.10;99.90;;;;;;5032852;28;20099;-60
2021/12/13 02:25:19;;;;;;;49.95;19.17;;;11.10;99.90;;;;;;5033041;28;20044;-60
2021/12/13 02:27:52;;;;;;;49.13;20.65;;;11.10;99.90;;;;;;5032803;28;20073;-60
2021/12/13 02:30:29;;;;;;;49.85;19.45;;;11.00;99.90;;;;;;5032942;28;20123;-59
2021/12/13 02:32:56;;;;;;;45.70;19.98;;;11.10;99.90;;;;;;5048945;28;20039;-59
2021/12/13 02:35:27;;;;;;;48.08;21.88;;;11.10;99.90;;;;;;5052629;28;20041;-59
2021/12/13 02:37:55;;;;;;;45.42;20.65;;;11.10;99.90;;;;;;5052815;28;20041;-57
2021/12/13 02:40:21;;;;;;;43.75;20.63;;;11.10;99.90;;;;;;5052441;28;20056;-58
2021/12/13 02:42:48;;;;;;;50.40;21.13;;;11.10;99.90;;;;;;5052074;28;20506;-58
2021/12/13 02:45:20;;;;;;;44.10;20.58;;;11.10;99.90;;;;;;5052271;28;20040;-60
2021/12/13 02:47:56;;;;;;;41.88;19.50;;;11.10;99.90;;;;;;5034541;28;20056;-60
2021/12/13 02:50:37;;;;;;;39.08;20.52;;;11.00;99.90;;;;;;5052416;28;20041;-60
2021/12/13 02:53:04;;;;;;;36.35;20.30;;;11.00;99.90;;;;;;5034450;28;20056;-60
2021/12/13 02:55:30;;;;;;;42.47;19.65;;;11.00;99.90;;;;;;5034352;28;20048;-60
2021/12/13 02:58:00;;;;;;;34.35;19.75;;;11.00;99.90;;;;;;5052238;28;20042;-59
2021/12/13 03:00:46;;;;;;;35.72;18.67;;;11.00;99.90;;;;;;5034227;28;20106;-60
2021/12/13 03:03:18;;;;;;;34.45;18.27;;;11.00;99.90;;;;;;5051795;28;20041;-59
2021/12/13 03:05:48;;;;;;;36.85;17.83;;;11.00;99.90;;;;;;5052161;28;20029;-60
2021/12/13 03:08:31;;;;;;;32.40;17.20;;;11.00;99.90;;;;;;5052266;28;20040;-60
2021/12/13 03:11:03;;;;;;;32.63;16.10;;;11.00;99.90;;;;;;5034182;28;20130;-60
2021/12/13 03:13:31;;;;;;;32.25;17.38;;;10.90;99.90;;;;;;5051586;28;20037;-61
2021/12/13 03:16:10;;;;;;;30.95;16.85;;;10.90;99.90;;;;;;5052045;28;20386;-58
2021/12/13 03:18:49;;;;;;;30.05;15.23;;;10.90;99.90;;;;;;5052019;28;20029;-60
2021/12/13 03:21:45;;;;;;;27.42;14.68;;;11.00;99.90;;;;;;5051980;28;20127;-60
2021/12/13 03:24:20;;;;;;;26.10;14.07;;;10.90;99.90;;;;;;5051452;28;20041;-61
2021/12/13 03:27:04;;;;;;;24.85;12.70;;;10.90;99.90;;;;;;5051776;28;20052;-59
2021/12/13 03:29:53;;;;;;;26.30;12.32;;;10.80;99.90;;;;;;5051710;28;20041;-60
2021/12/13 03:32:21;;;;;;;20.63;10.60;;;10.80;99.90;;;;;;5051158;28;20055;-60
2021/12/13 03:35:30;;;;;;;17.30;9.77;;;10.80;99.90;;;;;;5051724;28;20310;-60
2021/12/13 03:38:03;;;;;;;21.13;10.68;;;10.80;99.90;;;;;;5046478;28;20178;-61
2021/12/13 03:40:30;;;;;;;20.55;10.05;;;10.70;99.90;;;;;;5051213;28;20029;-60
2021/12/13 03:43:00;;;;;;;16.77;9.65;;;10.70;99.90;;;;;;5051201;28;20433;-58
2021/12/13 03:45:32;;;;;;;22.23;10.13;;;10.60;99.90;;;;;;5033459;28;20048;-60
2021/12/13 03:47:59;;;;;;;15.90;9.30;;;10.60;99.90;;;;;;5051427;28;20048;-60
2021/12/13 03:50:29;;;;;;;20.95;10.07;;;10.50;99.90;;;;;;5051047;28;20059;-60
2021/12/13 03:52:58;;;;;;;16.95;9.45;;;10.50;99.90;;;;;;5032883;28;20107;-60
2021/12/13 03:55:26;;;;;;;23.45;10.07;;;10.50;99.90;;;;;;5050949;28;20072;-60
2021/12/13 03:57:58;;;;;;;22.33;10.07;;;10.40;99.90;;;;;;5051299;28;20048;-59
2021/12/13 04:00:29;;;;;;;;;;;10.40;99.90;;;;;;5051568;28;20395;-60
2021/12/13 04:02:56;;;;;;;;;;;10.40;99.90;;;;;;5033540;28;20011;-60
2021/12/13 04:05:25;;;;;;;19.92;9.88;;;10.30;99.90;;;;;;5050639;28;19917;-60
2021/12/13 04:07:54;;;;;;;21.20;10.05;;;10.30;99.90;;;;;;5050656;28;20044;-60
2021/12/13 04:10:23;;;;;;;20.00;10.07;;;10.30;99.90;;;;;;5050924;28;20036;-59
2021/12/13 04:12:53;;;;;;;21.67;10.15;;;10.30;99.90;;;;;;5050645;28;20052;-60
2021/12/13 04:15:32;;;;;;;18.98;9.20;;;10.30;99.90;;;;;;5033232;28;20045;-61
2021/12/13 04:18:27;;;;;;;16.48;9.43;;;10.20;99.90;;;;;;5050680;28;20041;-60
2021/12/13 04:21:05;;;;;;;21.92;10.27;;;10.20;99.90;;;;;;5050522;28;20041;-60
2021/12/13 04:23:33;;;;;;;21.52;10.57;;;10.20;99.90;;;;;;5050729;28;20044;-60
2021/12/13 04:26:01;;;;;;;20.58;9.98;;;10.20;99.90;;;;;;5050538;28;20040;-59
2021/12/13 04:28:49;;;;;;;21.35;9.85;;;10.20;99.90;;;;;;5050139;28;20122;-61
2021/12/13 04:31:19;;;;;;;20.08;9.38;;;10.20;99.90;;;;;;5049484;28;20048;-59
2021/12/13 04:33:52;;;;;;;20.42;9.93;;;10.20;99.90;;;;;;5050128;28;20487;-59
2021/12/13 04:36:32;;;;;;;21.00;10.27;;;10.20;99.90;;;;;;5050445;28;20063;-59
2021/12/13 04:39:13;;;;;;;18.58;10.75;;;10.20;99.90;;;;;;5050165;28;20041;-58
2021/12/13 04:41:42;;;;;;;;;;;10.20;99.90;;;;;;5050931;28;20041;-59
2021/12/13 04:44:22;;;;;;;18.55;9.15;;;10.20;99.90;;;;;;5050256;28;20410;-60
2021/12/13 04:46:52;;;;;;;19.48;10.25;;;10.10;99.90;;;;;;5050312;28;20045;-60
2021/12/13 04:49:21;;;;;;;21.83;10.32;;;10.10;99.90;;;;;;5032098;28;20072;-59
2021/12/13 04:51:52;;;;;;;22.40;10.15;;;10.20;99.90;;;;;;5050075;28;20090;-60
2021/12/13 04:54:18;;;;;;;21.35;11.43;;;10.10;99.90;;;;;;5050236;28;20434;-60
2021/12/13 04:56:46;;;;;;;19.45;9.57;;;10.10;99.90;;;;;;5050270;28;20051;-60
2021/12/13 04:59:14;;;;;;;20.33;11.10;;;10.20;99.90;;;;;;5049768;28;20041;-60
2021/12/13 05:01:42;;;;;;;21.52;10.25;;;10.20;99.90;;;;;;5049942;28;20044;-60
2021/12/13 05:04:09;;;;;;;22.20;12.30;;;10.20;99.90;;;;;;5049670;28;20041;-60
2021/12/13 05:06:38;;;;;;;21.67;11.65;;;10.10;99.90;;;;;;5049204;28;20438;-59
2021/12/13 05:09:11;;;;;;;21.40;11.60;;;10.20;99.90;;;;;;5050000;28;20045;-60
2021/12/13 05:11:45;;;;;;;23.73;11.50;;;10.20;99.90;;;;;;5049739;28;20045;-60
2021/12/13 05:14:12;;;;;;;22.67;12.23;;;10.20;99.90;;;;;;5049856;28;20041;-60
2021/12/13 05:16:49;;;;;;;27.27;13.32;;;10.20;99.90;;;;;;5049796;28;20786;-59
2021/12/13 05:19:24;;;;;;;23.67;12.95;;;10.20;99.90;;;;;;5049885;28;20066;-59
2021/12/13 05:21:52;;;;;;;22.65;13.18;;;10.20;99.90;;;;;;5049581;28;20064;-59
2021/12/13 05:24:29;;;;;;;26.38;12.85;;;10.20;99.90;;;;;;5049700;28;20491;-60
2021/12/13 05:27:04;;;;;;;27.52;14.73;;;10.20;99.90;;;;;;5049614;28;20037;-59
2021/12/13 05:29:37;;;;;;;26.13;12.98;;;10.20;99.90;;;;;;5031974;28;20048;-60
2021/12/13 05:32:31;;;;;;;25.77;13.27;;;10.10;99.90;;;;;;5049565;28;20041;-60
2021/12/13 05:35:19;;;;;;;29.23;14.68;;;10.10;99.90;;;;;;5032030;28;20048;-60
2021/12/13 05:37:52;;;;;;;27.17;14.10;;;10.10;99.90;;;;;;5049290;28;20048;-59
2021/12/13 05:40:23;;;;;;;29.92;15.27;;;10.10;99.90;;;;;;5049573;28;20033;-59
2021/12/13 05:43:15;;;;;;;28.77;16.17;;;10.10;99.90;;;;;;5049401;28;20667;-59
2021/12/13 05:45:44;;;;;;;25.05;14.20;;;10.20;99.90;;;;;;5038311;28;20064;-60
2021/12/13 05:48:17;;;;;;;26.35;13.57;;;10.10;99.90;;;;;;5049766;28;20056;-60
2021/12/13 05:50:53;;;;;;;30.83;14.43;;;10.20;99.90;;;;;;5049405;28;20052;-60
2021/12/13 05:53:23;;;;;;;31.40;15.52;;;10.10;99.90;;;;;;5049258;28;20083;-60
2021/12/13 05:56:06;;;;;;;27.77;14.88;;;10.10;99.90;;;;;;5049349;28;20386;-58
2021/12/13 05:58:35;;;;;;;31.40;15.90;;;10.10;99.90;;;;;;5049814;28;20041;-60
2021/12/13 06:01:11;;;;;;;37.33;17.25;;;10.10;99.90;;;;;;5030942;28;20526;-60
2021/12/13 06:04:02;;;;;;;30.38;17.38;;;10.20;99.90;;;;;;5049250;28;20037;-57
2021/12/13 06:06:28;;;;;;;34.47;18.52;;;10.10;99.90;;;;;;5038100;28;20498;-59
2021/12/13 06:08:57;;;;;;;35.38;19.42;;;10.10;99.90;;;;;;5049488;28;20077;-60
2021/12/13 06:11:33;;;;;;;37.75;20.98;;;10.10;99.90;;;;;;5049362;28;20103;-60
2021/12/13 06:14:20;;;;;;;37.78;19.02;;;10.10;99.90;;;;;;5049027;28;20499;-60
2021/12/13 06:17:03;;;;;;;42.70;20.40;;;10.10;99.90;;;;;;5049941;28;20072;-61
2021/12/13 06:19:35;;;;;;;41.00;21.50;;;10.10;99.90;;;;;;5053175;28;20040;-60
2021/12/13 06:22:08;;;;;;;41.78;20.70;;;10.10;99.90;;;;;;5052757;28;20037;-60
2021/12/13 06:24:38;;;;;;;43.13;21.02;;;10.10;99.90;;;;;;5052965;28;20041;-60
2021/12/13 06:27:06;;;;;;;42.70;22.13;;;10.10;99.90;;;;;;5052839;28;20045;-60
2021/12/13 06:29:53;;;;;;;43.25;20.00;;;10.10;99.90;;;;;;5052671;28;20372;-60
2021/12/13 06:32:40;;;;;;;43.10;21.38;;;10.10;99.90;;;;;;5031797;28;20044;-61
2021/12/13 06:35:30;;;;;;;43.42;20.83;;;10.10;99.90;;;;;;5049572;28;20040;-60
2021/12/13 06:37:58;;;;;;;44.20;22.50;;;10.10;99.90;;;;;;5031287;28;20045;-60
2021/12/13 06:40:31;;;;;;;44.30;23.48;;;10.10;99.90;;;;;;5052427;28;20128;-60
2021/12/13 06:42:59;;;;;;;47.40;23.23;;;10.10;99.90;;;;;;5052551;28;20041;-60
2021/12/13 06:45:30;;;;;;;48.45;25.08;;;10.10;99.90;;;;;;5052490;28;20033;-60
2021/12/13 06:47:58;;;;;;;49.15;24.15;;;10.10;99.90;;;;;;5052491;28;20538;-59
2021/12/13 06:50:32;;;;;;;44.58;23.95;;;10.10;99.90;;;;;;5052171;28;20041;-60
2021/12/13 06:53:14;;;;;;;47.65;23.83;;;10.10;99.90;;;;;;5052396;28;20041;-60
2021/12/13 06:55:41;;;;;;;48.85;24.08;;;10.10;99.90;;;;;;5052394;28;20065;-60
2021/12/13 06:58:20;;;;;;;46.90;22.13;;;10.10;99.90;;;;;;5052173;28;20029;-58
2021/12/13 07:00:49;;;;;;;48.58;24.02;;;10.10;99.90;;;;;;5049169;28;20044;-59
2021/12/13 07:03:23;;;;;;;47.30;24.02;;;10.10;99.90;;;;;;5049573;28;20043;-59
2021/12/13 07:05:53;;;;;;;47.42;23.45;;;10.10;99.90;;;;;;5052146;28;20033;-60
2021/12/13 07:08:26;;;;;;;46.85;22.35;;;10.10;99.90;;;;;;5052108;28;20119;-61
2021/12/13 07:10:52;;;;;;;44.55;21.73;;;10.10;99.90;;;;;;5051759;28;20044;-60
2021/12/13 07:13:29;;;;;;;49.10;23.85;;;10.10;99.90;;;;;;5051705;28;20041;-60
2021/12/13 07:15:57;;;;;;;44.85;23.17;;;10.10;99.90;;;;;;5052001;28;20132;-60
2021/12/13 07:18:29;;;;;;;47.78;25.25;;;10.10;99.90;;;;;;5034030;28;20037;-60
2021/12/13 07:21:08;;;;;;;48.33;23.92;;;10.10;99.90;;;;;;5051752;28;20065;-60
2021/12/13 07:24:09;;;;;;;46.70;24.90;;;10.10;99.90;;;;;;5051608;28;20549;-60
2021/12/13 07:26:42;;;;;;;49.53;24.10;;;10.00;99.90;;;;;;5051869;28;20155;-60
2021/12/13 07:29:13;;;;;;;47.63;24.80;;;10.00;99.90;;;;;;5050791;28;20127;-60
2021/12/13 07:31:41;;;;;;;49.97;25.95;;;10.00;99.90;;;;;;5051386;28;20037;-60
2021/12/13 07:34:25;;;;;;;49.45;24.02;;;10.00;99.90;;;;;;5033473;28;20049;-60
2021/12/13 07:36:59;;;;;;;45.03;25.00;;;10.00;99.90;;;;;;5051706;28;20044;-60
2021/12/13 07:39:28;;;;;;;45.72;24.60;;;10.00;99.90;;;;;;5051382;28;20049;-59
2021/12/13 07:41:58;;;;;;;44.50;22.35;;;10.00;99.90;;;;;;5050974;28;20094;-60
2021/12/13 07:44:36;;;;;;;45.63;23.75;;;10.00;99.90;;;;;;5051241;28;20048;-60
2021/12/13 07:47:12;;;;;;;46.15;23.38;;;10.00;99.90;;;;;;5051471;28;20080;-60
2021/12/13 07:49:42;;;;;;;44.65;23.20;;;10.00;99.90;;;;;;5051207;28;20052;-59
2021/12/13 07:52:19;;;;;;;46.53;24.33;;;10.00;99.90;;;;;;5050816;28;20491;-60
2021/12/13 07:54:45;;;;;;;48.05;23.73;;;9.90;99.90;;;;;;5051077;28;20275;-60
2021/12/13 07:57:24;;;;;;;51.42;25.52;;;10.00;99.90;;;;;;5051260;28;20052;-60
2021/12/13 07:59:51;;;;;;;48.08;24.60;;;9.90;99.90;;;;;;5033053;28;20193;-60
2021/12/13 08:02:22;;;;;;;51.03;23.20;;;10.00;99.90;;;;;;5050874;28;20229;-60
2021/12/13 08:04:56;;;;;;;42.90;24.75;;;9.90;99.90;;;;;;5033231;28;20080;-60
2021/12/13 08:07:24;;;;;;;46.75;24.63;;;9.90;99.90;;;;;;5033087;28;20094;-60
2021/12/13 08:10:06;;;;;;;50.28;24.63;;;9.90;99.90;;;;;;5050635;28;20494;-61
2021/12/13 08:12:38;;;;;;;45.25;23.10;;;9.90;99.90;;;;;;5050628;28;20079;-60
2021/12/13 08:15:07;;;;;;;48.28;24.42;;;9.90;99.90;;;;;;5050652;28;20041;-60
2021/12/13 08:17:42;;;;;;;45.53;23.58;;;10.00;99.90;;;;;;5050897;28;20068;-60
2021/12/13 08:20:10;;;;;;;44.92;24.02;;;10.00;99.90;;;;;;5032769;28;20048;-61
2021/12/13 08:22:43;;;;;;;51.70;24.33;;;9.90;99.90;;;;;;5050533;28;20041;-60
2021/12/13 08:25:16;;;;;;;41.58;22.48;;;10.00;99.90;;;;;;5050624;28;20076;-59
2021/12/13 08:27:55;;;;;;;46.72;24.10;;;10.00;99.90;;;;;;5050156;28;20056;-60
2021/12/13 08:30:30;;;;;;;42.45;23.48;;;10.00;99.90;;;;;;5048724;28;20529;-60
2021/12/13 08:33:19;;;;;;;42.47;23.58;;;10.00;99.90;;;;;;5048416;28;20037;-59
2021/12/13 08:36:05;;;;;;;45.65;22.77;;;10.00;99.90;;;;;;5049032;28;20064;-60
2021/12/13 08:38:39;;;;;;;40.78;22.90;;;10.00;99.90;;;;;;5049008;28;20111;-59
2021/12/13 08:41:24;;;;;;;44.70;22.70;;;10.00;99.90;;;;;;5049109;28;20041;-59
2021/12/13 08:44:19;;;;;;;47.65;22.77;;;10.00;99.90;;;;;;5049748;28;20083;-60
2021/12/13 08:46:57;;;;;;;42.22;20.92;;;10.00;99.90;;;;;;5039180;28;20045;-61
2021/12/13 08:50:13;;;;;;;43.50;22.45;;;10.00;99.90;;;;;;5050425;28;20065;-61
2021/12/13 08:52:42;;;;;;;45.70;22.67;;;10.00;99.90;;;;;;4968385;28;20146;-59
2021/12/13 08:55:11;;;;;;;44.63;22.92;;;10.00;99.90;;;;;;5034770;28;20048;-60
2021/12/13 08:57:55;;;;;;;44.53;23.02;;;10.00;99.90;;;;;;5050048;28;20413;-61
2021/12/13 09:00:30;;;;;;;48.60;20.95;;;10.00;99.90;;;;;;5049990;28;20094;-61
2021/12/13 09:03:10;;;;;;;40.88;21.98;;;10.00;99.90;;;;;;5049959;28;20041;-61
2021/12/13 09:05:39;;;;;;;43.67;22.17;;;10.10;99.90;;;;;;5049791;28;20483;-60
2021/12/13 09:08:13;;;;;;;38.67;21.13;;;10.10;99.90;;;;;;5049760;28;20407;-61
2021/12/13 09:10:47;;;;;;;40.92;23.05;;;10.10;99.90;;;;;;5050116;28;20045;-60
2021/12/13 09:13:15;;;;;;;40.42;21.52;;;10.10;99.90;;;;;;5049640;28;20131;-59
2021/12/13 09:15:42;;;;;;;42.45;22.35;;;10.10;99.90;;;;;;5049646;28;20068;-60
2021/12/13 09:18:09;;;;;;;38.80;20.88;;;10.10;99.90;;;;;;5031479;28;20386;-60
2021/12/13 09:20:45;;;;;;;39.70;22.05;;;10.10;99.90;;;;;;5049678;28;20119;-59
2021/12/13 09:23:20;;;;;;;38.72;22.63;;;10.10;99.90;;;;;;5031487;28;20110;-60
2021/12/13 09:25:59;;;;;;;41.67;21.55;;;10.10;99.90;;;;;;5049496;28;20033;-60
2021/12/13 09:28:29;;;;;;;38.63;21.48;;;10.10;99.90;;;;;;5047932;28;20040;-60
2021/12/13 09:31:11;;;;;;;38.55;20.65;;;10.10;99.90;;;;;;5028765;28;20494;-60
2021/12/13 09:33:58;;;;;;;41.08;22.33;;;10.10;99.90;;;;;;5047012;28;20029;-60
2021/12/13 09:36:31;;;;;;;40.35;20.98;;;10.10;99.90;;;;;;5031366;28;20043;-60
2021/12/13 09:39:04;;;;;;;38.53;21.30;;;10.10;99.90;;;;;;5046988;28;20062;-60
2021/12/13 09:41:33;;;;;;;39.67;21.98;;;10.10;99.90;;;;;;5031259;28;20048;-60
2021/12/13 09:43:58;;;;;;;36.25;20.08;;;10.10;99.90;;;;;;5049339;28;20068;-61
2021/12/13 09:46:29;;;;;;;42.65;22.38;;;10.10;99.90;;;;;;5049107;28;20576;-60
2021/12/13 09:48:57;;;;;;;40.33;21.95;;;10.10;99.90;;;;;;5047692;28;20079;-61
2021/12/13 09:51:38;;;;;;;38.70;22.08;;;10.20;99.90;;;;;;5048493;28;20571;-61
2021/12/13 09:54:06;;;;;;;43.17;19.15;;;10.10;99.90;;;;;;5052943;28;20068;-58
2021/12/13 09:56:36;;;;;;;34.95;19.98;;;10.20;99.90;;;;;;5035190;28;20041;-60
2021/12/13 09:59:16;;;;;;;37.00;20.35;;;10.20;99.90;;;;;;5034675;28;20067;-60
2021/12/13 10:01:42;;;;;;;35.22;20.92;;;10.20;99.90;;;;;;5051941;28;20090;-60
2021/12/13 10:04:23;;;;;;;38.08;19.83;;;10.20;99.90;;;;;;5052147;28;20103;-60
2021/12/13 10:06:59;;;;;;;36.05;20.48;;;10.20;99.90;;;;;;5052202;28;20037;-60
2021/12/13 10:09:29;;;;;;;37.60;19.38;;;10.20;99.90;;;;;;5052075;28;20085;-61
2021/12/13 10:12:01;;;;;;;35.78;19.08;;;10.20;99.90;;;;;;5033918;28;20060;-61
2021/12/13 10:14:31;;;;;;;35.05;19.70;;;10.20;99.90;;;;;;5052172;28;20503;-61
2021/12/13 10:16:58;;;;;;;39.97;20.70;;;10.20;99.90;;;;;;5035482;28;20051;-61
2021/12/13 10:19:31;;;;;;;35.35;19.33;;;10.20;99.90;;;;;;5052851;28;20040;-59
2021/12/13 10:21:59;;;;;;;34.13;19.20;;;10.30;99.90;;;;;;5052614;28;20119;-59
2021/12/13 10:24:30;;;;;;;34.15;19.13;;;10.30;99.90;;;;;;5052812;28;20040;-60
2021/12/13 10:26:58;;;;;;;29.88;16.55;;;10.30;99.90;;;;;;5052850;28;20093;-61
2021/12/13 10:29:26;;;;;;;35.03;19.52;;;10.30;99.90;;;;;;5052932;28;20033;-59
2021/12/13 10:32:01;;;;;;;32.65;19.85;;;10.30;99.90;;;;;;5052437;28;20045;-60
2021/12/13 10:34:31;;;;;;;36.20;20.17;;;10.30;99.90;;;;;;5052791;28;20045;-60
2021/12/13 10:37:04;;;;;;;32.72;20.00;;;10.30;99.90;;;;;;5052850;28;20099;-60
2021/12/13 10:39:38;;;;;;;29.38;17.25;;;10.30;99.90;;;;;;5052302;28;20037;-61
2021/12/13 10:42:15;;;;;;;33.58;19.38;;;10.30;99.90;;;;;;5052336;28;20539;-61
2021/12/13 10:44:44;;;;;;;31.10;18.52;;;10.30;99.90;;;;;;5052599;28;20047;-60
2021/12/13 10:47:21;;;;;;;32.55;18.75;;;10.30;99.90;;;;;;5052498;28;20045;-60
2021/12/13 10:49:49;;;;;;;33.28;18.48;;;10.30;99.90;;;;;;5052107;28;20056;-61
2021/12/13 10:52:31;;;;;;;30.38;18.52;;;10.30;99.90;;;;;;5034194;28;20412;-61
2021/12/13 10:55:01;;;;;;;30.33;17.48;;;10.40;99.90;;;;;;5052240;28;20044;-59
2021/12/13 10:57:31;;;;;;;29.05;17.52;;;10.40;99.90;;;;;;5052238;28;20463;-61
2021/12/13 10:59:59;;;;;;;27.92;16.25;;;10.40;99.90;;;;;;5051978;28;20116;-60
2021/12/13 11:02:29;;;;;;;29.33;16.73;;;10.40;99.90;;;;;;5033629;28;20067;-61
2021/12/13 11:05:05;;;;;;;31.63;16.50;;;10.40;99.90;;;;;;5033421;28;20522;-60
2021/12/13 11:07:31;;;;;;;27.70;15.82;;;10.40;99.90;;;;;;5052341;28;20036;-60
2021/12/13 11:09:58;;;;;;;29.05;16.67;;;10.40;99.90;;;;;;5052155;28;20041;-61
2021/12/13 11:12:33;;;;;;;29.67;17.65;;;10.40;99.90;;;;;;5051717;28;20522;-61
2021/12/13 11:15:05;;;;;;;30.92;17.88;;;10.40;99.90;;;;;;5052080;28;20040;-61
2021/12/13 11:17:33;;;;;;;26.10;15.80;;;10.40;99.90;;;;;;5052197;28;20090;-61
2021/12/13 11:20:06;;;;;;;31.50;16.58;;;10.40;99.90;;;;;;5051997;28;20052;-60
2021/12/13 11:22:33;;;;;;;30.83;17.52;;;10.40;99.90;;;;;;5051667;28;20708;-61
2021/12/13 11:25:08;;;;;;;30.40;16.10;;;10.40;99.90;;;;;;5033917;28;20121;-60
2021/12/13 11:27:34;;;;;;;27.67;16.92;;;10.40;99.90;;;;;;5034165;28;20044;-60
2021/12/13 11:30:15;;;;;;;32.28;17.42;;;10.40;99.90;;;;;;5051664;28;20646;-60
2021/12/13 11:33:10;;;;;;;29.27;17.15;;;10.40;99.90;;;;;;5051422;28;20120;-61
2021/12/13 11:36:07;;;;;;;27.50;16.88;;;10.40;99.90;;;;;;5051281;28;20048;-59
2021/12/13 11:38:35;;;;;;;32.63;17.33;;;10.40;99.90;;;;;;5033657;28;20056;-60
2021/12/13 11:41:38;;;;;;;29.95;15.55;;;10.40;99.90;;;;;;5051460;28;20487;-60
2021/12/13 11:44:23;;;;;;;29.67;17.38;;;10.40;99.90;;;;;;5050977;28;20040;-60
2021/12/13 11:47:19;;;;;;;29.13;16.00;;;10.40;99.90;;;;;;5051498;28;20578;-58
2021/12/13 11:49:48;;;;;;;30.23;18.15;;;10.40;99.90;;;;;;5033279;28;20037;-60
2021/12/13 11:52:44;;;;;;;26.33;16.27;;;10.40;99.90;;;;;;5050886;28;20041;-60
2021/12/13 11:55:38;;;;;;;28.40;17.10;;;10.40;99.90;;;;;;5051359;28;20045;-60
2021/12/13 11:58:42;;;;;;;29.63;16.30;;;10.40;99.90;;;;;;5051143;28;20037;-60
2021/12/13 12:01:45;;;;;;;29.45;17.52;;;10.40;99.90;;;;;;5050368;28;20047;-59
2021/12/13 12:04:56;;;;;;;28.80;17.23;;;10.40;99.90;;;;;;5033140;28;20052;-60
2021/12/13 12:07:31;;;;;;;30.33;16.30;;;10.40;99.90;;;;;;5050924;28;20049;-60
2021/12/13 12:10:09;;;;;;;33.55;17.33;;;10.40;99.90;;;;;;5051066;28;20116;-59
2021/12/13 12:13:02;;;;;;;27.83;15.90;;;10.40;99.90;;;;;;5050798;28;20102;-60
2021/12/13 12:15:28;;;;;;;30.08;16.15;;;10.40;99.90;;;;;;5032470;28;20040;-60
2021/12/13 12:17:58;;;;;;;33.75;18.80;;;10.40;99.90;;;;;;5032907;28;20036;-59
2021/12/13 12:20:30;;;;;;;27.35;16.67;;;10.40;99.90;;;;;;5050774;28;20068;-60
2021/12/13 12:23:04;;;;;;;30.33;18.42;;;10.40;99.90;;;;;;5047966;28;20036;-59
2021/12/13 12:25:33;;;;;;;32.47;16.67;;;10.40;99.90;;;;;;5050166;28;20036;-60
2021/12/13 12:28:07;;;;;;;30.35;16.35;;;10.40;99.90;;;;;;5050413;28;20047;-60
2021/12/13 12:30:38;;;;;;;30.13;17.17;;;10.40;99.90;;;;;;5050229;28;20057;-60
2021/12/13 12:33:07;;;;;;;31.85;16.60;;;10.40;99.90;;;;;;5047667;28;20041;-60
2021/12/13 12:35:47;;;;;;;35.97;16.55;;;10.40;99.90;;;;;;5050075;28;20040;-60
2021/12/13 12:38:33;;;;;;;27.35;16.55;;;10.40;99.90;;;;;;5030698;28;20052;-60
2021/12/13 12:41:13;;;;;;;27.58;17.23;;;10.40;99.90;;;;;;5050225;28;20124;-60
2021/12/13 12:43:42;;;;;;;29.75;16.85;;;10.40;99.90;;;;;;5050447;28;20041;-59
2021/12/13 12:46:12;;;;;;;32.53;17.20;;;10.40;99.90;;;;;;5050227;28;20645;-60
2021/12/13 12:48:44;;;;;;;31.73;16.92;;;10.40;99.90;;;;;;5032027;28;20091;-59
2021/12/13 12:51:20;;;;;;;28.08;16.83;;;10.40;99.90;;;;;;5049998;28;20037;-60
2021/12/13 12:54:00;;;;;;;26.80;16.38;;;10.50;99.90;;;;;;5050069;28;20102;-59
2021/12/13 12:56:34;;;;;;;28.25;16.25;;;10.40;99.90;;;;;;5050083;28;20068;-60
2021/12/13 12:59:14;;;;;;;27.75;15.23;;;10.40;99.90;;;;;;5049716;28;20045;-60
2021/12/13 13:01:49;;;;;;;29.95;16.80;;;10.50;99.90;;;;;;5050058;28;20037;-60
2021/12/13 13:04:40;;;;;;;29.33;16.45;;;10.50;99.90;;;;;;5032594;28;20049;-61
2021/12/13 13:07:28;;;;;;;26.40;15.20;;;10.40;99.90;;;;;;5038956;28;20071;-61
2021/12/13 13:09:59;;;;;;;25.27;15.25;;;10.50;99.90;;;;;;5049092;28;20135;-60
2021/12/13 13:12:30;;;;;;;26.77;15.55;;;10.50;99.90;;;;;;5049780;28;20044;-60
2021/12/13 13:15:18;;;;;;;25.75;15.75;;;10.50;99.90;;;;;;5050194;28;20037;-60